Holt, California
Current Conditions -  °F | °C
As of 12:55 AM on Monday 20 Oct 2014 (Local Time) from KSCK Reporting Station
Clear Clear  
Wind Chill: 61°   Ceiling: Unl
Heat Index: 61°   Visibility: 10mi
Dew Point: 55°   Wind: 3mph
Humidity: 81%   Direction: 10°N
Pressure: 29.89"   Gusts: NA
Location:  37.93°N, 121.43°W
Report Text: KSCK 200755Z AUTO 01003KT 10SM CLR 16/13 A2989 RMK AO2 SLP119 T01610128 402890100 TSNO
Loading
Personal Weather Stations






























Interactive Weather Map
Tropical Storm Tracking
New forecast layout! Learn more

10-Day Weather Forecast

Advertisements
Track Severe Weather on mobile